Mexico, Ohio
Current Conditions -  °F | °C
As of 7:53 AM on Thursday 30 Oct 2014 (Local Time) from KMNN Reporting Station
Clear Clear  
Wind Chill: 32°   Ceiling: Unl
Heat Index: 36°   Visibility: 8mi
Dew Point: 34°   Wind: 5mph
Humidity: 93%   Direction: 290°WNW
Pressure: 30.14"   Gusts: NA
Location:  40.948°N, 83.1346°W
Report Text: KMNN 301153Z AUTO 29004KT 8SM CLR 02/01 A3014 RMK AO2 SLP213 T00220011 10061 20022 51009 TSNO
Loading
Personal Weather Stations






























Interactive Weather Map
Tropical Storm Tracking
New forecast layout! Learn more

10-Day Weather Forecast

Advertisements
Track Severe Weather on mobile